Du har inga inställningar för hoppväder.nu

Hoppväder.nu

Senast uppdaterat 01:36

UTC-tid

2019-12-06 kl. 00:36


Sol och måne

Solen går upp 9:21 och går ner 13:33 (beräknade cirkatider)
Nästa fullmåne blir om 6 dagar (2019-12-12)

METAR

ESNS (Skellefteå)
(16 minuter sedan)
ESNS 060020Z AUTO 24010KT 9999 NCD 00/M04 Q0979=



ESNU (Umeå)
(16 minuter sedan)
ESNU 060020Z 19007KT CAVOK M01/M03 Q0981 RWY 14 ICE 0-10 PCT FCT 0.65=



ESPA (Luleå)
(16 minuter sedan)
ESPA 060020Z AUTO 26008KT 9999 NCD 01/M03 Q0976=









TAF

ESNS (Skellefteå)
(246 minuter sedan)
ESNS 052030Z 0521/0523 24008KT CAVOK=



ESNU (Umeå)
(66 minuter sedan)
ESNU 052330Z 0600/0609 23008KT CAVOK=



ESPA (Luleå)
(246 minuter sedan)
ESPA 052030Z 0521/0524 22007KT CAVOK=





Kodnycklar till TAF och METAR






LHP

(Skellefteå är område A1b i Norra delen)

Prognos är inte uppdaterad




Spotting

Hur fungerar spotthjälpen och Vindkartan?

Markvind är ca 0 m/s.



Vindkartan

Senast uppdaterad 01:36




All data kommer från LFV.se